Time;durP1;ratioP1;P1;durP2;ratioP2;P2;SDS_P1;SDS_P2;PMS_P1;PMS_P2;Temp;Humidity;BMP_temperature;BMP_pressure;BME280_temperature;BME280_humidity;BME280_pressure;Samples;Min_cycle;Max_cycle;Signal;HPM_P1;HPM_P2
2022/05/27 00:01:28;;;;;;;15.27;4.43;;;14.90;99.90;;;;;;5115042;28;20293;-67
2022/05/27 00:03:57;;;;;;;14.27;3.70;;;15.00;99.90;;;;;;5114704;28;20281;-67
2022/05/27 00:06:23;;;;;;;19.90;4.20;;;15.00;99.90;;;;;;5114834;28;20277;-67
2022/05/27 00:08:49;;;;;;;14.13;3.70;;;15.00;99.90;;;;;;5114716;28;20340;-68
2022/05/27 00:11:15;;;;;;;15.70;3.80;;;14.90;99.90;;;;;;5114826;28;20321;-67
2022/05/27 00:13:41;;;;;;;18.93;3.93;;;14.90;99.90;;;;;;5114773;28;20039;-67
2022/05/27 00:16:08;;;;;;;12.07;3.10;;;14.90;99.90;;;;;;5114301;28;20761;-67
2022/05/27 00:18:35;;;;;;;18.27;4.07;;;14.90;99.90;;;;;;5114582;28;20277;-67
2022/05/27 00:21:01;;;;;;;15.13;3.60;;;14.90;99.90;;;;;;5114383;28;20289;-67
2022/05/27 00:23:27;;;;;;;16.40;4.43;;;14.90;99.90;;;;;;5096679;28;20278;-67
2022/05/27 00:25:53;;;;;;;16.40;3.67;;;14.80;99.90;;;;;;5114365;28;20295;-67
2022/05/27 00:28:18;;;;;;;18.67;3.80;;;14.80;99.90;;;;;;5114576;28;20074;-67
2022/05/27 00:30:44;;;;;;;18.10;4.23;;;14.70;99.90;;;;;;5096394;28;20457;-67
2022/05/27 00:33:11;;;;;;;16.83;3.60;;;14.70;99.90;;;;;;5114054;28;20540;-67
2022/05/27 00:35:38;;;;;;;16.20;3.47;;;14.60;99.90;;;;;;5114225;28;20134;-67
2022/05/27 00:38:04;;;;;;;19.30;3.77;;;14.60;99.90;;;;;;5096240;28;20302;-67
2022/05/27 00:40:40;;;;;;;22.87;4.10;;;;;;;;;;5096411;28;20738;-67
2022/05/27 00:43:07;;;;;;;16.97;3.20;;;14.50;99.90;;;;;;5113942;28;20633;-67
2022/05/27 00:45:34;;;;;;;18.03;3.73;;;14.50;99.90;;;;;;5095465;28;20728;-67
2022/05/27 00:48:03;;;;;;;17.47;3.97;;;14.40;99.90;;;;;;5113567;28;20285;-67
2022/05/27 00:50:34;;;;;;;20.83;4.30;;;14.40;99.90;;;;;;5096042;28;20289;-67
2022/05/27 00:53:03;;;;;;;17.00;4.13;;;14.40;99.90;;;;;;5096099;28;20282;-67
2022/05/27 00:55:36;;;;;;;17.80;4.77;;;14.40;99.90;;;;;;5114003;28;20300;-67
2022/05/27 00:58:13;;;;;;;24.70;4.10;;;14.40;99.90;;;;;;5113783;28;20266;-68
2022/05/27 01:00:39;;;;;;;21.93;3.80;;;14.30;99.90;;;;;;5114045;28;20280;-67
2022/05/27 01:03:07;;;;;;;24.77;4.20;;;14.30;99.90;;;;;;5113674;28;20352;-67
2022/05/27 01:05:33;;;;;;;13.97;4.13;;;14.30;99.90;;;;;;5095839;28;20632;-67
2022/05/27 01:08:03;;;;;;;14.57;3.47;;;14.30;99.90;;;;;;5113407;28;20294;-68
2022/05/27 01:10:34;;;;;;;19.67;3.53;;;14.30;99.90;;;;;;5095844;28;20282;-67
2022/05/27 01:13:29;;;;;;;16.37;4.17;;;14.20;99.90;;;;;;5095288;28;20285;-67
2022/05/27 01:16:19;;;;;;;20.02;3.67;;;14.20;99.90;;;;;;5113269;28;20293;-67
2022/05/27 01:21:54;;;;;;;16.60;3.63;;;14.10;99.90;;;;;;5113810;28;20293;-67
2022/05/27 01:24:40;;;;;;;19.50;4.68;;;14.10;99.90;;;;;;5113408;28;20278;-67
2022/05/27 01:27:42;;;;;;;22.10;4.17;;;14.10;99.90;;;;;;5113103;28;20502;-67
2022/05/27 01:30:36;;;;;;;22.27;3.83;;;14.00;99.90;;;;;;5113427;28;20629;-67
2022/05/27 01:33:04;;;;;;;22.40;4.53;;;14.00;99.90;;;;;;5084847;28;20645;-67
2022/05/27 01:36:03;;;;;;;15.67;3.70;;;13.90;99.90;;;;;;5113412;28;20382;-67
2022/05/27 01:38:44;;;;;;;20.63;3.47;;;13.90;99.90;;;;;;5095861;28;20289;-67
2022/05/27 01:41:16;;;;;;;16.13;4.27;;;13.90;99.90;;;;;;5113202;28;20277;-67
2022/05/27 01:43:49;;;;;;;19.97;3.90;;;13.80;99.90;;;;;;5113458;28;20705;-67
2022/05/27 01:46:18;;;;;;;19.63;4.30;;;13.90;99.90;;;;;;5113045;28;20309;-67
2022/05/27 01:48:47;;;;;;;19.00;3.23;;;13.80;99.90;;;;;;5113341;28;20327;-67
2022/05/27 01:51:26;;;;;;;17.97;3.90;;;13.80;99.90;;;;;;5113139;28;20289;-67
2022/05/27 01:54:04;;;;;;;18.53;3.27;;;13.80;99.90;;;;;;5095451;28;20293;-67
2022/05/27 01:56:51;;;;;;;20.80;4.27;;;13.80;99.90;;;;;;5115097;28;20277;-67
2022/05/27 01:59:40;;;;;;;16.27;3.23;;;13.90;99.90;;;;;;5117305;28;20278;-67
2022/05/27 02:02:15;;;;;;;18.63;4.27;;;13.80;99.90;;;;;;5116815;28;20799;-67
2022/05/27 02:04:53;;;;;;;15.43;4.30;;;13.80;99.90;;;;;;5117488;28;20296;-67
2022/05/27 02:07:48;;;;;;;14.63;4.40;;;13.80;99.90;;;;;;5116880;28;20521;-67
2022/05/27 02:10:29;;;;;;;21.87;4.87;;;13.70;99.90;;;;;;5094411;28;20289;-67
2022/05/27 02:13:01;;;;;;;15.07;3.60;;;13.70;99.90;;;;;;5117215;28;20283;-67
2022/05/27 02:15:37;;;;;;;17.90;3.83;;;13.70;99.90;;;;;;5098712;28;20261;-67
2022/05/27 02:18:12;;;;;;;20.70;4.07;;;13.60;99.90;;;;;;5117055;28;20621;-68
2022/05/27 02:20:44;;;;;;;17.53;3.50;;;13.60;99.90;;;;;;5099100;28;20293;-67
2022/05/27 02:23:42;;;;;;;15.30;4.77;;;13.60;99.90;;;;;;5116858;28;20783;-67
2022/05/27 02:26:13;;;;;;;16.53;3.77;;;;;;;;;;5097934;28;20289;-67
2022/05/27 02:28:43;;;;;;;23.43;3.20;;;13.60;99.90;;;;;;5117044;28;20293;-67
2022/05/27 02:31:22;;;;;;;15.00;3.97;;;13.50;99.90;;;;;;5098391;28;20749;-67
2022/05/27 02:36:56;;;;;;;16.93;3.67;;;13.40;99.90;;;;;;5116899;28;20281;-67
2022/05/27 02:39:21;;;;;;;14.27;3.77;;;13.40;99.90;;;;;;5116528;28;20353;-67
2022/05/27 02:42:08;;;;;;;15.37;3.57;;;13.40;99.90;;;;;;5116514;28;20824;-67
2022/05/27 02:45:12;;;;;;;21.67;4.00;;;13.30;99.90;;;;;;5116535;28;20054;-67
2022/05/27 02:47:43;;;;;;;16.90;3.53;;;13.30;99.90;;;;;;5102758;28;20777;-67
2022/05/27 02:50:15;;;;;;;17.77;3.83;;;13.20;99.90;;;;;;5116333;28;20300;-67
2022/05/27 02:52:56;;;;;;;15.50;3.77;;;13.30;99.90;;;;;;5116423;28;20285;-67
2022/05/27 02:55:33;;;;;;;20.30;3.73;;;13.30;99.90;;;;;;5115885;28;20686;-67
2022/05/27 02:58:02;;;;;;;19.07;3.47;;;13.30;99.90;;;;;;5116400;28;20277;-67
2022/05/27 03:00:31;;;;;;;16.23;3.70;;;13.20;99.90;;;;;;5116086;28;20281;-67
2022/05/27 03:02:59;;;;;;;16.10;3.70;;;13.30;99.90;;;;;;5116252;28;20632;-67
2022/05/27 03:05:32;;;;;;;16.17;3.40;;;13.20;99.90;;;;;;5115809;28;20319;-67
2022/05/27 03:08:16;;;;;;;13.90;3.40;;;13.30;99.90;;;;;;5115541;28;20297;-67
2022/05/27 03:11:02;;;;;;;14.63;3.03;;;13.30;99.90;;;;;;5116256;28;20282;-67
2022/05/27 03:13:55;;;;;;;16.10;3.67;;;13.20;99.90;;;;;;5115815;28;21193;-67
2022/05/27 03:16:24;;;;;;;12.70;3.60;;;13.20;99.90;;;;;;5115630;28;20772;-67
2022/05/27 03:19:16;;;;;;;17.77;4.30;;;13.20;99.90;;;;;;5115950;28;20312;-67
2022/05/27 03:22:11;;;;;;;16.47;3.67;;;13.20;99.90;;;;;;5097626;28;20652;-67
2022/05/27 03:25:12;;;;;;;16.55;3.95;;;13.20;99.90;;;;;;5107280;28;20840;-67
2022/05/27 03:28:12;;;;;;;15.90;4.03;;;13.10;99.90;;;;;;5102166;28;20073;-67
2022/05/27 03:31:17;;;;;;;17.97;3.97;;;13.10;99.90;;;;;;5115558;28;20374;-67
2022/05/27 03:34:11;;;;;;;17.43;4.13;;;13.00;99.90;;;;;;5084083;28;20332;-67
2022/05/27 03:36:50;;;;;;;13.90;3.50;;;13.00;99.90;;;;;;5115576;28;20281;-67
2022/05/27 03:39:27;;;;;;;18.23;3.80;;;13.10;99.90;;;;;;5115530;28;20282;-67
2022/05/27 03:42:01;;;;;;;16.40;3.67;;;13.00;99.90;;;;;;5115673;28;20277;-67
2022/05/27 03:44:27;;;;;;;18.77;3.53;;;13.00;99.90;;;;;;5115021;28;20649;-67
2022/05/27 03:46:55;;;;;;;18.40;3.63;;;13.00;99.90;;;;;;5115273;28;20289;-67
2022/05/27 03:49:21;;;;;;;16.53;3.93;;;13.00;99.90;;;;;;5114786;28;20403;-67
2022/05/27 03:51:55;;;;;;;21.30;4.00;;;13.00;99.90;;;;;;5115296;28;20277;-67
2022/05/27 03:54:21;;;;;;;18.80;5.43;;;13.00;99.90;;;;;;5115216;28;20273;-67
2022/05/27 03:56:47;;;;;;;17.37;3.60;;;13.00;99.90;;;;;;5115174;28;20050;-67
2022/05/27 03:59:15;;;;;;;14.33;3.37;;;13.10;99.90;;;;;;5114958;28;20168;-68
2022/05/27 04:01:44;;;;;;;17.83;3.47;;;13.10;99.90;;;;;;5115078;28;20052;-67
2022/05/27 04:04:13;;;;;;;15.90;3.80;;;13.10;99.90;;;;;;5096640;28;20750;-67
2022/05/27 04:06:39;;;;;;;16.30;2.67;;;13.10;99.90;;;;;;5115430;28;20679;-67
2022/05/27 04:09:05;;;;;;;18.47;3.27;;;13.10;99.90;;;;;;5096691;28;20296;-67
2022/05/27 04:11:32;;;;;;;19.00;3.67;;;13.10;99.90;;;;;;5114530;28;20090;-67
2022/05/27 04:13:58;;;;;;;13.90;2.70;;;13.10;99.90;;;;;;5114779;28;20280;-67
2022/05/27 04:16:24;;;;;;;17.77;3.10;;;13.20;99.90;;;;;;5114259;28;20286;-67
2022/05/27 04:18:50;;;;;;;16.93;3.33;;;13.20;99.90;;;;;;5114838;28;20498;-67
2022/05/27 04:21:17;;;;;;;15.10;3.37;;;13.20;99.90;;;;;;5113786;28;20282;-67
2022/05/27 04:23:42;;;;;;;12.23;3.40;;;13.30;99.90;;;;;;5114666;28;20813;-67
2022/05/27 04:26:08;;;;;;;15.93;3.60;;;13.30;99.90;;;;;;5114540;28;20281;-67
2022/05/27 04:28:35;;;;;;;17.07;3.60;;;13.30;99.90;;;;;;5114157;28;20598;-67
2022/05/27 04:31:02;;;;;;;14.20;2.40;;;13.40;99.90;;;;;;5114311;28;20134;-67
2022/05/27 04:33:28;;;;;;;12.97;2.80;;;13.40;99.90;;;;;;5114300;28;20278;-67
2022/05/27 04:35:56;;;;;;;14.00;3.07;;;13.50;99.90;;;;;;5096190;28;20285;-67
2022/05/27 04:38:22;;;;;;;14.20;3.23;;;13.50;99.90;;;;;;5114038;28;20309;-67
2022/05/27 04:40:48;;;;;;;12.13;3.40;;;13.50;99.90;;;;;;5114134;28;20765;-67
2022/05/27 04:43:14;;;;;;;13.97;3.13;;;13.50;99.90;;;;;;5114250;28;20288;-67
2022/05/27 04:45:40;;;;;;;15.60;3.57;;;13.60;99.90;;;;;;5095827;28;20040;-67
2022/05/27 04:48:06;;;;;;;12.30;3.10;;;13.70;99.90;;;;;;5114105;28;20311;-67
2022/05/27 04:50:32;;;;;;;15.17;3.40;;;13.70;99.90;;;;;;5096046;28;20327;-67
2022/05/27 04:52:59;;;;;;;21.10;3.20;;;13.70;99.90;;;;;;5114255;28;20306;-67
2022/05/27 04:55:25;;;;;;;13.37;2.93;;;13.60;99.90;;;;;;5113771;28;20402;-68
2022/05/27 04:57:54;;;;;;;13.67;3.20;;;13.60;99.90;;;;;;5095855;28;20273;-67
2022/05/27 05:00:35;;;;;;;14.47;2.87;;;13.60;99.90;;;;;;5113453;28;20372;-68
2022/05/27 05:03:01;;;;;;;11.70;3.47;;;13.60;99.90;;;;;;5113928;28;20284;-67
2022/05/27 05:05:29;;;;;;;11.87;3.43;;;13.60;99.90;;;;;;5113573;28;20330;-67
2022/05/27 05:08:03;;;;;;;17.83;4.20;;;13.50;99.90;;;;;;5095817;28;20301;-67
2022/05/27 05:10:30;;;;;;;14.20;2.37;;;13.50;99.90;;;;;;5113466;28;20675;-67
2022/05/27 05:12:56;;;;;;;11.60;3.63;;;13.50;99.90;;;;;;5113462;28;20365;-67
2022/05/27 05:15:24;;;;;;;12.47;3.03;;;13.50;99.90;;;;;;5113510;28;20368;-68
2022/05/27 05:17:50;;;;;;;14.20;3.53;;;13.70;99.90;;;;;;5113690;28;20284;-67
2022/05/27 05:20:19;;;;;;;11.37;3.20;;;13.90;99.90;;;;;;5113415;28;20277;-67
2022/05/27 05:22:44;;;;;;;12.57;3.23;;;14.10;99.90;;;;;;5113334;28;20277;-68
2022/05/27 05:25:11;;;;;;;11.93;3.07;;;14.30;99.90;;;;;;5095398;28;20333;-67
2022/05/27 05:27:38;;;;;;;14.03;2.83;;;14.50;99.90;;;;;;5113010;28;20122;-67
2022/05/27 05:30:06;;;;;;;15.30;3.47;;;14.60;99.90;;;;;;5113563;28;20285;-67
2022/05/27 05:32:32;;;;;;;13.60;3.20;;;14.70;99.90;;;;;;5094715;28;20285;-68
2022/05/27 05:34:59;;;;;;;15.73;3.30;;;14.80;99.90;;;;;;5113671;28;20277;-67
2022/05/27 05:37:26;;;;;;;14.80;3.70;;;14.80;99.90;;;;;;5113038;28;20855;-67
2022/05/27 05:39:51;;;;;;;14.70;3.17;;;14.80;99.90;;;;;;5113238;28;20776;-68
2022/05/27 05:42:17;;;;;;;16.47;4.00;;;14.90;99.90;;;;;;5113693;28;20281;-68
2022/05/27 05:44:43;;;;;;;12.57;3.63;;;15.00;99.90;;;;;;5113084;28;20039;-68
2022/05/27 05:47:09;;;;;;;18.47;4.40;;;15.30;99.90;;;;;;5113240;28;20518;-68
2022/05/27 05:49:35;;;;;;;17.67;4.13;;;16.10;99.90;;;;;;5113060;28;20048;-68
2022/05/27 05:52:00;;;;;;;13.53;3.20;;;16.70;99.90;;;;;;5113159;28;20040;-68
2022/05/27 05:54:28;;;;;;;12.43;3.37;;;17.20;99.90;;;;;;5112786;28;20047;-68
2022/05/27 05:56:54;;;;;;;15.43;3.57;;;17.80;99.90;;;;;;5113580;28;20075;-68
2022/05/27 05:59:20;;;;;;;13.37;3.80;;;;;;;;;;5113388;28;20039;-68
2022/05/27 06:01:47;;;;;;;15.10;3.40;;;19.00;98.40;;;;;;5112989;28;20510;-68
2022/05/27 06:04:12;;;;;;;13.83;3.50;;;19.90;96.80;;;;;;5113373;28;20371;-68
2022/05/27 06:06:39;;;;;;;15.80;3.97;;;20.80;92.80;;;;;;5112928;28;20058;-68
2022/05/27 06:09:06;;;;;;;19.03;4.10;;;21.60;82.10;;;;;;5094660;28;20035;-68
2022/05/27 06:11:33;;;;;;;16.27;3.77;;;22.20;72.90;;;;;;5112911;28;20051;-68
2022/05/27 06:13:59;;;;;;;17.97;3.67;;;22.90;67.20;;;;;;5113150;28;20416;-68
2022/05/27 06:16:25;;;;;;;15.80;3.40;;;23.50;61.10;;;;;;5113254;28;20078;-68
2022/05/27 06:18:50;;;;;;;10.73;3.33;;;23.90;57.10;;;;;;5112700;28;20532;-68
2022/05/27 06:21:16;;;;;;;14.50;3.77;;;24.20;54.70;;;;;;5113101;28;20043;-68
2022/05/27 06:23:44;;;;;;;12.70;3.83;;;24.70;52.30;;;;;;5112511;28;20048;-68
2022/05/27 06:26:11;;;;;;;10.80;3.47;;;25.10;50.10;;;;;;5113052;28;20556;-68
2022/05/27 06:34:25;;;;;;;11.65;3.40;;;26.10;41.80;;;;;;5112727;28;20051;-69
2022/05/27 06:37:04;;;;;;;11.60;3.63;;;26.40;44.20;;;;;;5112681;28;20078;-69
2022/05/27 06:39:33;;;;;;;11.43;3.20;;;26.40;41.00;;;;;;5112819;28;20055;-69
2022/05/27 06:41:59;;;;;;;13.33;3.40;;;26.70;50.40;;;;;;5077676;28;20380;-69
2022/05/27 06:44:25;;;;;;;10.37;3.27;;;;;;;;;;5115708;28;20177;-69
2022/05/27 06:46:52;;;;;;;12.03;3.80;;;27.20;40.50;;;;;;5098089;28;20050;-69
2022/05/27 06:49:20;;;;;;;11.13;4.00;;;27.30;40.50;;;;;;5116589;28;20054;-69
2022/05/27 06:51:47;;;;;;;10.53;3.60;;;27.20;38.70;;;;;;5097981;28;20044;-69
2022/05/27 06:54:13;;;;;;;15.60;3.80;;;27.00;39.10;;;;;;5116446;28;20040;-69
2022/05/27 06:56:42;;;;;;;13.85;4.20;;;26.90;37.90;;;;;;5116074;28;20503;-70
2022/05/27 06:59:08;;;;;;;14.50;3.83;;;26.60;37.00;;;;;;5098009;28;20575;-69
2022/05/27 07:01:35;;;;;;;12.45;4.22;;;26.50;37.70;;;;;;5116111;28;20438;-70
2022/05/27 07:04:01;;;;;;;12.73;4.07;;;;;;;;;;5116489;28;20429;-69
2022/05/27 07:06:31;;;;;;;10.87;3.80;;;25.90;37.60;;;;;;5116163;28;20047;-69
2022/05/27 07:08:59;;;;;;;14.73;4.37;;;25.00;37.00;;;;;;5115763;28;20181;-69
2022/05/27 07:11:25;;;;;;;12.97;3.67;;;;;;;;;;5116098;28;20051;-69
2022/05/27 07:13:51;;;;;;;12.63;3.40;;;23.60;40.30;;;;;;5115622;28;20080;-69
2022/05/27 07:16:16;;;;;;;14.47;3.97;;;23.70;42.10;;;;;;5116378;28;20441;-69
2022/05/27 07:18:42;;;;;;;12.00;3.63;;;24.40;41.40;;;;;;5116034;28;20036;-69
2022/05/27 07:21:08;;;;;;;15.33;4.53;;;25.00;40.70;;;;;;5115708;28;20410;-69
2022/05/27 07:23:34;;;;;;;13.90;3.93;;;24.70;40.20;;;;;;5116010;28;20154;-69
2022/05/27 07:26:00;;;;;;;9.43;3.20;;;23.80;40.20;;;;;;5115430;28;20047;-69
2022/05/27 07:28:26;;;;;;;13.63;4.13;;;23.60;41.00;;;;;;5115673;28;20043;-69
2022/05/27 07:30:53;;;;;;;14.20;3.30;;;23.10;41.90;;;;;;5115318;28;20479;-69
2022/05/27 07:33:20;;;;;;;15.17;4.03;;;23.60;43.20;;;;;;5115784;28;20464;-69
2022/05/27 07:35:46;;;;;;;15.27;3.93;;;23.70;42.50;;;;;;5115338;28;20122;-69
2022/05/27 07:38:12;;;;;;;10.87;3.50;;;24.10;42.70;;;;;;5115782;28;20044;-69
2022/05/27 07:40:38;;;;;;;12.90;3.97;;;24.30;42.30;;;;;;5115117;28;20044;-70
2022/05/27 07:43:07;;;;;;;13.17;3.57;;;23.90;42.10;;;;;;5097725;28;20445;-69
2022/05/27 07:45:36;;;;;;;14.97;4.20;;;22.90;41.50;;;;;;5115394;28;20036;-69
2022/05/27 07:48:02;;;;;;;15.30;4.33;;;22.70;42.90;;;;;;5115200;28;20406;-69
2022/05/27 07:50:28;;;;;;;10.93;3.63;;;23.40;42.90;;;;;;5115465;28;20127;-69
2022/05/27 07:52:54;;;;;;;14.00;4.20;;;24.20;41.90;;;;;;5115039;28;20090;-69
2022/05/27 07:55:20;;;;;;;12.20;3.37;;;25.10;40.50;;;;;;5114704;28;20044;-69
2022/05/27 07:57:47;;;;;;;9.00;3.00;;;25.80;38.60;;;;;;5096881;28;20040;-70
2022/05/27 08:00:16;;;;;;;16.37;3.57;;;;;;;;;;5115148;28;20482;-70
2022/05/27 08:02:42;;;;;;;10.77;3.00;;;;;;;;;;5096621;28;20055;-70
2022/05/27 08:05:10;;;;;;;14.30;4.60;;;;;;;;;;5115129;28;20044;-69
2022/05/27 08:07:36;;;;;;;14.60;4.13;;;25.90;35.40;;;;;;5096489;28;20134;-70
2022/05/27 08:10:02;;;;;;;12.35;3.78;;;25.80;36.80;;;;;;5113808;28;20567;-70
2022/05/27 08:12:28;;;;;;;11.90;3.83;;;25.80;36.70;;;;;;5079383;28;20521;-70
2022/05/27 08:14:53;;;;;;;14.00;3.80;;;26.20;37.20;;;;;;5114213;28;20043;-70
2022/05/27 08:17:19;;;;;;;17.15;3.90;;;26.70;36.90;;;;;;5114432;28;20043;-72
2022/05/27 08:19:45;;;;;;;11.02;3.80;;;;;;;;;;5114278;28;20520;-69
2022/05/27 08:22:11;;;;;;;11.23;3.20;;;26.50;35.80;;;;;;5114884;28;20055;-68
2022/05/27 08:24:36;;;;;;;15.27;4.00;;;26.50;36.50;;;;;;5114563;28;20055;-69
2022/05/27 08:27:02;;;;;;;15.25;4.30;;;25.80;36.30;;;;;;5114503;28;20092;-68
2022/05/27 08:29:28;;;;;;;14.55;4.00;;;25.10;40.30;;;;;;5114605;28;20039;-68
2022/05/27 08:31:54;;;;;;;13.48;4.15;;;25.10;42.30;;;;;;5114813;28;20549;-69
2022/05/27 08:39:48;;;;;;;12.90;3.35;;;24.50;37.50;;;;;;5114335;28;20048;-69
2022/05/27 08:42:42;;;;;;;13.32;4.38;;;23.90;39.00;;;;;;5114410;28;20388;-69
2022/05/27 08:45:32;;;;;;;15.00;4.50;;;23.50;40.00;;;;;;5113972;28;20048;-69
2022/05/27 08:48:03;;;;;;;11.87;3.50;;;23.10;40.80;;;;;;5113973;28;20083;-69
2022/05/27 08:50:33;;;;;;;14.80;3.17;;;22.80;41.00;;;;;;5114189;28;20479;-70
2022/05/27 08:53:02;;;;;;;12.00;3.57;;;;;;;;;;5095798;28;20051;-69
2022/05/27 09:01:33;;;;;;;11.53;3.80;;;21.40;43.20;;;;;;5113990;28;20051;-69
2022/05/27 09:04:05;;;;;;;12.70;3.27;;;;;;;;;;5113725;28;20052;-69
2022/05/27 09:06:52;;;;;;;10.90;3.20;;;21.00;42.50;;;;;;5113117;28;20522;-68
2022/05/27 09:09:23;;;;;;;9.17;3.97;;;21.00;43.60;;;;;;5113825;28;20043;-70
2022/05/27 09:11:49;;;;;;;12.07;3.63;;;20.70;43.90;;;;;;5113489;28;20044;-68
2022/05/27 09:14:21;;;;;;;10.80;3.37;;;20.50;60.20;;;;;;5113644;28;20134;-68
2022/05/27 09:17:00;;;;;;;12.53;3.73;;;20.40;45.40;;;;;;5113444;28;20399;-68
2022/05/27 09:19:38;;;;;;;11.97;3.63;;;20.40;46.40;;;;;;5113342;28;20400;-68
2022/05/27 09:22:22;;;;;;;15.17;3.87;;;20.30;46.80;;;;;;5112893;28;20057;-68
2022/05/27 09:24:56;;;;;;;14.80;3.70;;;;;;;;;;5095444;28;20043;-68
2022/05/27 09:27:39;;;;;;;13.48;3.35;;;19.90;84.90;;;;;;5113895;28;20058;-68
2022/05/27 09:30:11;;;;;;;9.37;3.00;;;20.00;62.60;;;;;;5113363;28;20487;-68
2022/05/27 09:32:51;;;;;;;15.60;3.63;;;19.80;45.20;;;;;;5113651;28;20035;-69
2022/05/27 09:35:19;;;;;;;12.33;3.77;;;19.60;46.30;;;;;;5113338;28;20048;-67
2022/05/27 09:37:49;;;;;;;14.03;3.27;;;19.50;47.30;;;;;;5113206;28;20035;-68
2022/05/27 09:40:36;;;;;;;15.07;3.70;;;19.30;47.20;;;;;;5113286;28;20051;-70
2022/05/27 09:43:15;;;;;;;12.47;3.57;;;19.30;47.80;;;;;;5113135;28;20044;-67
2022/05/27 09:45:43;;;;;;;10.73;3.23;;;19.20;48.00;;;;;;5113365;28;20119;-68
2022/05/27 09:48:10;;;;;;;11.20;3.60;;;19.10;48.70;;;;;;5112764;28;20043;-67
2022/05/27 09:50:45;;;;;;;11.57;3.37;;;19.30;49.30;;;;;;5113030;28;20446;-67
2022/05/27 09:53:31;;;;;;;18.07;3.57;;;19.50;49.30;;;;;;5113134;28;20048;-68
2022/05/27 09:56:07;;;;;;;18.13;3.90;;;19.50;48.80;;;;;;5113011;28;20043;-67
2022/05/27 09:58:42;;;;;;;11.33;3.90;;;19.40;49.10;;;;;;5113071;28;20044;-72
2022/05/27 10:01:22;;;;;;;;;;;19.30;49.60;;;;;;5113353;28;20051;-67
2022/05/27 10:04:02;;;;;;;14.93;4.13;;;19.10;49.20;;;;;;5094957;28;20041;-67
2022/05/27 10:06:30;;;;;;;10.13;3.43;;;18.90;54.30;;;;;;5113082;28;20043;-67
2022/05/27 10:08:58;;;;;;;12.03;3.10;;;18.80;50.10;;;;;;5112480;28;20156;-68
2022/05/27 10:11:28;;;;;;;13.93;3.53;;;18.70;50.10;;;;;;5113004;28;20047;-67
2022/05/27 10:14:06;;;;;;;10.67;2.97;;;18.70;50.30;;;;;;5112365;28;20044;-68
2022/05/27 10:16:34;;;;;;;14.07;3.57;;;18.70;50.90;;;;;;5110192;28;20055;-69
2022/05/27 10:19:21;;;;;;;14.87;4.27;;;18.60;51.30;;;;;;5115008;28;20040;-69
2022/05/27 10:21:59;;;;;;;16.03;3.80;;;18.60;51.80;;;;;;5117387;28;20491;-68
2022/05/27 10:24:35;;;;;;;15.77;3.67;;;18.50;51.20;;;;;;5117191;28;20087;-68
2022/05/27 10:27:15;;;;;;;13.93;4.20;;;18.40;51.80;;;;;;5098835;28;20047;-68
2022/05/27 10:29:50;;;;;;;15.97;3.97;;;18.50;53.00;;;;;;5115859;28;20043;-68
2022/05/27 10:32:31;;;;;;;15.53;3.80;;;18.60;52.80;;;;;;5114080;28;20047;-66
2022/05/27 10:34:58;;;;;;;14.13;3.73;;;18.60;52.80;;;;;;5113417;28;20049;-68
2022/05/27 10:37:46;;;;;;;13.23;3.73;;;18.40;53.10;;;;;;5116172;28;20092;-67
2022/05/27 10:40:12;;;;;;;18.40;3.50;;;18.30;53.60;;;;;;5114883;28;20501;-68
2022/05/27 10:42:52;;;;;;;15.03;3.63;;;18.20;54.00;;;;;;5116237;28;20096;-67
2022/05/27 10:45:31;;;;;;;12.27;3.87;;;18.20;55.20;;;;;;5116321;28;20094;-68
2022/05/27 10:48:12;;;;;;;15.90;3.90;;;18.20;55.60;;;;;;5116500;28;20044;-67
2022/05/27 10:50:54;;;;;;;11.83;3.17;;;18.20;55.40;;;;;;5116360;28;20051;-66
2022/05/27 10:53:50;;;;;;;15.97;3.97;;;18.10;56.20;;;;;;5116280;28;20047;-67
2022/05/27 10:56:40;;;;;;;15.37;4.23;;;18.00;56.50;;;;;;5097836;28;20445;-67
2022/05/27 11:02:42;;;;;;;14.23;3.50;;;18.00;57.40;;;;;;5115956;28;20077;-67
2022/05/27 11:05:26;;;;;;;18.77;4.63;;;18.00;57.10;;;;;;5097651;28;20119;-67
2022/05/27 11:07:58;;;;;;;12.30;3.67;;;18.00;57.00;;;;;;5116189;28;20048;-66
2022/05/27 11:10:39;;;;;;;13.03;3.13;;;18.00;57.60;;;;;;5115957;28;20502;-66
2022/05/27 11:16:39;;;;;;;16.30;3.70;;;18.10;56.90;;;;;;5103694;28;20510;-66
2022/05/27 11:19:17;;;;;;;14.57;3.50;;;17.80;57.80;;;;;;5115635;28;20134;-68
2022/05/27 11:22:01;;;;;;;19.23;3.60;;;17.60;58.80;;;;;;5115592;28;20048;-66
2022/05/27 11:24:45;;;;;;;12.70;3.60;;;17.50;60.10;;;;;;5115736;28;20140;-69
2022/05/27 11:27:23;;;;;;;17.20;4.57;;;17.50;63.00;;;;;;5115566;28;20059;-70
2022/05/27 11:30:00;;;;;;;19.73;4.83;;;17.60;65.70;;;;;;5114805;28;20048;-66
2022/05/27 11:32:58;;;;;;;15.40;3.43;;;17.70;65.50;;;;;;5114978;28;20052;-67
2022/05/27 11:35:39;;;;;;;14.90;3.80;;;17.80;63.20;;;;;;5114590;28;20051;-67
2022/05/27 11:38:31;;;;;;;12.97;3.87;;;17.70;62.50;;;;;;5115393;28;20455;-67
2022/05/27 11:41:04;;;;;;;19.57;4.30;;;17.50;63.40;;;;;;5115970;28;20057;-66
2022/05/27 11:43:58;;;;;;;13.67;3.60;;;17.50;64.40;;;;;;5115759;28;20437;-67
2022/05/27 11:46:31;;;;;;;15.10;4.40;;;17.50;64.00;;;;;;5107790;28;20047;-67
2022/05/27 11:49:35;;;;;;;16.00;3.77;;;17.40;64.10;;;;;;5097162;28;20039;-67
2022/05/27 11:52:36;;;;;;;12.70;3.43;;;17.40;61.70;;;;;;5115348;28;20522;-66
2022/05/27 11:55:17;;;;;;;14.23;3.30;;;17.30;63.30;;;;;;5115394;28;20055;-67
2022/05/27 11:58:16;;;;;;;18.00;4.13;;;17.20;65.20;;;;;;5115472;28;20051;-66
2022/05/27 12:00:56;;;;;;;13.47;3.60;;;17.30;65.30;;;;;;5115399;28;20126;-66
2022/05/27 12:03:33;;;;;;;14.43;3.73;;;17.30;66.10;;;;;;5097649;28;20521;-67
2022/05/27 12:06:07;;;;;;;15.13;3.83;;;17.40;66.60;;;;;;5115641;28;20051;-67
2022/05/27 12:08:55;;;;;;;17.87;3.97;;;17.40;66.60;;;;;;5115251;28;20114;-67
2022/05/27 12:11:45;;;;;;;14.27;3.77;;;17.50;64.60;;;;;;5115056;28;20082;-67
2022/05/27 12:14:21;;;;;;;16.33;4.03;;;17.30;65.80;;;;;;5114909;28;20043;-67
2022/05/27 12:16:50;;;;;;;14.37;3.50;;;17.20;66.60;;;;;;5114851;28;20460;-67
2022/05/27 12:19:19;;;;;;;17.10;3.80;;;17.20;67.10;;;;;;5114722;28;20128;-67
2022/05/27 12:22:00;;;;;;;15.30;4.07;;;17.30;68.20;;;;;;5096506;28;20051;-67
2022/05/27 12:24:37;;;;;;;15.23;3.90;;;17.30;67.00;;;;;;5114142;27;20052;-68
2022/05/27 12:27:04;;;;;;;14.80;4.03;;;17.20;69.10;;;;;;5114959;28;20051;-68
2022/05/27 12:29:32;;;;;;;17.50;4.70;;;17.20;69.80;;;;;;5114303;28;20123;-67
2022/05/27 12:31:59;;;;;;;12.03;3.47;;;17.30;69.10;;;;;;5114602;28;20122;-69
2022/05/27 12:34:27;;;;;;;16.87;4.23;;;17.20;68.30;;;;;;5114145;28;20448;-67
2022/05/27 12:36:54;;;;;;;21.23;4.10;;;17.20;68.50;;;;;;5114337;28;20050;-67
2022/05/27 12:39:28;;;;;;;18.33;4.57;;;17.20;68.90;;;;;;5095144;28;20048;-67
2022/05/27 12:42:11;;;;;;;21.27;3.92;;;17.20;69.90;;;;;;5111121;28;20118;-67
2022/05/27 12:44:38;;;;;;;12.23;3.20;;;17.20;69.40;;;;;;5114501;28;20043;-68
2022/05/27 12:47:05;;;;;;;13.80;3.53;;;17.10;69.70;;;;;;5114000;28;20456;-70
2022/05/27 12:49:35;;;;;;;14.00;3.50;;;17.10;69.70;;;;;;5113738;28;20043;-69
2022/05/27 12:52:03;;;;;;;16.70;3.20;;;17.00;69.20;;;;;;5114152;28;20483;-67
2022/05/27 12:54:43;;;;;;;18.17;4.70;;;17.00;77.50;;;;;;5114028;28;20103;-68
2022/05/27 13:03:34;;;;;;;14.53;4.37;;;17.00;76.80;;;;;;5113582;28;20060;-67
2022/05/27 13:06:11;;;;;;;14.45;3.72;;;17.10;75.20;;;;;;5113140;28;20403;-67
2022/05/27 13:08:53;;;;;;;17.13;3.57;;;17.10;74.90;;;;;;5110376;28;20499;-67
2022/05/27 13:11:21;;;;;;;15.13;3.77;;;17.10;73.70;;;;;;5113091;28;20448;-68
2022/05/27 13:13:49;;;;;;;16.43;4.27;;;17.10;73.10;;;;;;5113338;28;20055;-67
2022/05/27 13:16:25;;;;;;;12.73;3.60;;;17.10;73.00;;;;;;5113187;28;20382;-67
2022/05/27 13:18:58;;;;;;;16.03;3.50;;;17.10;74.10;;;;;;5110435;28;20125;-67
2022/05/27 13:21:27;;;;;;;11.30;3.50;;;17.20;73.80;;;;;;5085423;28;20048;-68
2022/05/27 13:24:01;;;;;;;12.97;3.20;;;17.20;74.10;;;;;;5090096;28;20127;-66
2022/05/27 13:26:34;;;;;;;16.50;4.07;;;17.10;72.70;;;;;;5088460;28;20040;-68
2022/05/27 13:29:00;;;;;;;14.57;3.00;;;17.00;73.80;;;;;;5079201;28;20040;-68
2022/05/27 13:31:40;;;;;;;13.67;3.37;;;17.10;76.70;;;;;;5087028;28;20044;-69
2022/05/27 13:34:28;;;;;;;12.90;2.87;;;17.20;78.10;;;;;;5083854;28;20075;-68
2022/05/27 13:37:06;;;;;;;14.17;3.40;;;17.20;75.10;;;;;;5067759;28;20060;-69
2022/05/27 13:39:43;;;;;;;15.17;4.10;;;17.30;75.30;;;;;;5088245;28;20123;-68
2022/05/27 13:42:11;;;;;;;16.13;3.83;;;17.20;74.40;;;;;;5086999;28;20072;-69
2022/05/27 13:44:40;;;;;;;12.23;3.23;;;17.10;74.80;;;;;;5087737;28;20048;-69
2022/05/27 13:47:12;;;;;;;14.53;3.67;;;16.90;72.40;;;;;;5087440;28;20090;-68